<?xml version="1.0" encoding="UTF-8"?><gpx creator="Wikiloc - https://www.wikiloc.com" version="1.1" xmlns="http://www.topografix.com/GPX/1/1" xmlns:xsi="http://www.w3.org/2001/XMLSchema-instance" xsi:schemaLocation="http://www.topografix.com/GPX/1/1 http://www.topografix.com/GPX/1/1/gpx.xsd"><metadata><name>Wikiloc - Paseos Rurales - Ruta del Temple</name><author><name>Red Extremeña de Desarrollo Rural (REDEX)</name><link href="https://www.wikiloc.com/wikiloc/user.do?id=2006209"><text>Red Extremeña de Desarrollo Rural (REDEX) on Wikiloc</text></link></author><link href="https://www.wikiloc.com/walking-trails/paseos-rurales-ruta-del-temple-31859208"><text>Paseos Rurales - Ruta del Temple on Wikiloc</text></link><time>2019-01-02T14:35:19Z</time></metadata><trk><name>Paseos Rurales - Ruta del Temple</name><cmt></cmt><desc></desc><trkseg><trkpt lat="38.326542" lon="-6.761856"><ele>489.963</ele><time>2019-01-02T13:35:17Z</time></trkpt><trkpt lat="38.326435" lon="-6.761990"><ele>489.844</ele><time>2019-01-02T13:35:32Z</time></trkpt><trkpt lat="38.326430" lon="-6.762103"><ele>489.118</ele><time>2019-01-02T13:35:40Z</time></trkpt><trkpt lat="38.326451" lon="-6.762215"><ele>488.408</ele><time>2019-01-02T13:35:49Z</time></trkpt><trkpt lat="38.325920" lon="-6.763047"><ele>486.559</ele><time>2019-01-02T13:37:14Z</time></trkpt><trkpt lat="38.325636" lon="-6.763562"><ele>485.887</ele><time>2019-01-02T13:38:03Z</time></trkpt><trkpt lat="38.325475" lon="-6.763873"><ele>485.554</ele><time>2019-01-02T13:38:32Z</time></trkpt><trkpt lat="38.325185" lon="-6.764382"><ele>484.711</ele><time>2019-01-02T13:39:22Z</time></trkpt><trkpt lat="38.325212" lon="-6.764495"><ele>483.735</ele><time>2019-01-02T13:39:31Z</time></trkpt><trkpt lat="38.325144" lon="-6.764546"><ele>483.618</ele><time>2019-01-02T13:39:39Z</time></trkpt><trkpt lat="38.325123" lon="-6.764578"><ele>483.626</ele><time>2019-01-02T13:39:42Z</time></trkpt><trkpt lat="38.324944" lon="-6.764627"><ele>484.314</ele><time>2019-01-02T13:40:00Z</time></trkpt><trkpt lat="38.324784" lon="-6.764804"><ele>483.536</ele><time>2019-01-02T13:40:22Z</time></trkpt><trkpt lat="38.324461" lon="-6.764986"><ele>481.817</ele><time>2019-01-02T13:40:57Z</time></trkpt><trkpt lat="38.324268" lon="-6.765093"><ele>480.518</ele><time>2019-01-02T13:41:18Z</time></trkpt><trkpt lat="38.324097" lon="-6.765240"><ele>478.808</ele><time>2019-01-02T13:41:39Z</time></trkpt><trkpt lat="38.323958" lon="-6.765421"><ele>476.466</ele><time>2019-01-02T13:41:59Z</time></trkpt><trkpt lat="38.323839" lon="-6.765548"><ele>475.044</ele><time>2019-01-02T13:42:14Z</time></trkpt><trkpt lat="38.323719" lon="-6.765657"><ele>474.631</ele><time>2019-01-02T13:42:29Z</time></trkpt><trkpt lat="38.323590" lon="-6.765825"><ele>473.368</ele><time>2019-01-02T13:42:47Z</time></trkpt><trkpt lat="38.323520" lon="-6.765951"><ele>472.552</ele><time>2019-01-02T13:42:59Z</time></trkpt><trkpt lat="38.323405" lon="-6.766130"><ele>471.935</ele><time>2019-01-02T13:43:18Z</time></trkpt><trkpt lat="38.323144" lon="-6.766465"><ele>471.613</ele><time>2019-01-02T13:43:55Z</time></trkpt><trkpt lat="38.322828" lon="-6.766832"><ele>471.231</ele><time>2019-01-02T13:44:37Z</time></trkpt><trkpt lat="38.322542" lon="-6.767181"><ele>471.054</ele><time>2019-01-02T13:45:17Z</time></trkpt><trkpt lat="38.322385" lon="-6.767331"><ele>470.956</ele><time>2019-01-02T13:45:37Z</time></trkpt><trkpt lat="38.322089" lon="-6.767649"><ele>471.111</ele><time>2019-01-02T13:46:15Z</time></trkpt><trkpt lat="38.321876" lon="-6.767978"><ele>472.008</ele><time>2019-01-02T13:46:49Z</time></trkpt><trkpt lat="38.321619" lon="-6.768374"><ele>471.688</ele><time>2019-01-02T13:47:29Z</time></trkpt><trkpt lat="38.321529" lon="-6.768575"><ele>472.646</ele><time>2019-01-02T13:47:47Z</time></trkpt><trkpt lat="38.321617" lon="-6.768820"><ele>476.543</ele><time>2019-01-02T13:48:09Z</time></trkpt><trkpt lat="38.321496" lon="-6.769185"><ele>477.640</ele><time>2019-01-02T13:48:40Z</time></trkpt><trkpt lat="38.321295" lon="-6.769588"><ele>477.394</ele><time>2019-01-02T13:49:17Z</time></trkpt><trkpt lat="38.321101" lon="-6.770018"><ele>478.637</ele><time>2019-01-02T13:49:56Z</time></trkpt><trkpt lat="38.321025" lon="-6.770192"><ele>479.065</ele><time>2019-01-02T13:50:12Z</time></trkpt><trkpt lat="38.320939" lon="-6.770386"><ele>479.073</ele><time>2019-01-02T13:50:29Z</time></trkpt><trkpt lat="38.321476" lon="-6.770867"><ele>493.646</ele><time>2019-01-02T13:51:35Z</time></trkpt><trkpt lat="38.321758" lon="-6.771031"><ele>499.288</ele><time>2019-01-02T13:52:06Z</time></trkpt><trkpt lat="38.321888" lon="-6.771233"><ele>501.616</ele><time>2019-01-02T13:52:27Z</time></trkpt><trkpt lat="38.321955" lon="-6.771412"><ele>503.408</ele><time>2019-01-02T13:52:42Z</time></trkpt><trkpt lat="38.321913" lon="-6.771475"><ele>503.087</ele><time>2019-01-02T13:52:49Z</time></trkpt><trkpt lat="38.321887" lon="-6.771499"><ele>502.755</ele><time>2019-01-02T13:52:52Z</time></trkpt><trkpt lat="38.321744" lon="-6.771653"><ele>500.722</ele><time>2019-01-02T13:53:10Z</time></trkpt><trkpt lat="38.321642" lon="-6.771762"><ele>499.539</ele><time>2019-01-02T13:53:24Z</time></trkpt><trkpt lat="38.321561" lon="-6.771870"><ele>498.283</ele><time>2019-01-02T13:53:36Z</time></trkpt><trkpt lat="38.321469" lon="-6.771957"><ele>496.746</ele><time>2019-01-02T13:53:47Z</time></trkpt><trkpt lat="38.321335" lon="-6.772071"><ele>494.514</ele><time>2019-01-02T13:54:03Z</time></trkpt><trkpt lat="38.321250" lon="-6.772162"><ele>492.882</ele><time>2019-01-02T13:54:14Z</time></trkpt><trkpt lat="38.321144" lon="-6.772263"><ele>490.148</ele><time>2019-01-02T13:54:27Z</time></trkpt><trkpt lat="38.321055" lon="-6.772332"><ele>487.761</ele><time>2019-01-02T13:54:38Z</time></trkpt><trkpt lat="38.320959" lon="-6.772379"><ele>486.117</ele><time>2019-01-02T13:54:48Z</time></trkpt><trkpt lat="38.320823" lon="-6.772370"><ele>484.508</ele><time>2019-01-02T13:55:02Z</time></trkpt><trkpt lat="38.320679" lon="-6.772317"><ele>482.637</ele><time>2019-01-02T13:55:17Z</time></trkpt><trkpt lat="38.320435" lon="-6.772088"><ele>481.465</ele><time>2019-01-02T13:55:47Z</time></trkpt><trkpt lat="38.320368" lon="-6.771984"><ele>481.632</ele><time>2019-01-02T13:55:58Z</time></trkpt><trkpt lat="38.320305" lon="-6.772063"><ele>480.519</ele><time>2019-01-02T13:56:07Z</time></trkpt><trkpt lat="38.320196" lon="-6.771799"><ele>480.183</ele><time>2019-01-02T13:56:30Z</time></trkpt><trkpt lat="38.320125" lon="-6.771660"><ele>479.066</ele><time>2019-01-02T13:56:43Z</time></trkpt><trkpt lat="38.320024" lon="-6.771596"><ele>478.154</ele><time>2019-01-02T13:56:54Z</time></trkpt><trkpt lat="38.320002" lon="-6.771631"><ele>477.882</ele><time>2019-01-02T13:56:58Z</time></trkpt><trkpt lat="38.319889" lon="-6.771659"><ele>477.199</ele><time>2019-01-02T13:57:09Z</time></trkpt><trkpt lat="38.319826" lon="-6.771656"><ele>476.807</ele><time>2019-01-02T13:57:16Z</time></trkpt><trkpt lat="38.319641" lon="-6.771967"><ele>473.527</ele><time>2019-01-02T13:57:46Z</time></trkpt><trkpt lat="38.319470" lon="-6.772113"><ele>471.308</ele><time>2019-01-02T13:58:07Z</time></trkpt><trkpt lat="38.319131" lon="-6.772249"><ele>470.452</ele><time>2019-01-02T13:58:42Z</time></trkpt><trkpt lat="38.318739" lon="-6.772408"><ele>468.240</ele><time>2019-01-02T13:59:24Z</time></trkpt><trkpt lat="38.318786" lon="-6.772887"><ele>459.177</ele><time>2019-01-02T14:00:02Z</time></trkpt><trkpt lat="38.319174" lon="-6.772749"><ele>461.564</ele><time>2019-01-02T14:00:42Z</time></trkpt><trkpt lat="38.319388" lon="-6.772713"><ele>463.158</ele><time>2019-01-02T14:01:03Z</time></trkpt><trkpt lat="38.319759" lon="-6.772733"><ele>463.661</ele><time>2019-01-02T14:01:41Z</time></trkpt><trkpt lat="38.319965" lon="-6.772771"><ele>463.749</ele><time>2019-01-02T14:02:01Z</time></trkpt><trkpt lat="38.320242" lon="-6.772736"><ele>468.487</ele><time>2019-01-02T14:02:29Z</time></trkpt><trkpt lat="38.320437" lon="-6.772893"><ele>468.438</ele><time>2019-01-02T14:02:52Z</time></trkpt><trkpt lat="38.320561" lon="-6.773044"><ele>468.670</ele><time>2019-01-02T14:03:10Z</time></trkpt><trkpt lat="38.320603" lon="-6.773396"><ele>466.617</ele><time>2019-01-02T14:03:37Z</time></trkpt><trkpt lat="38.320535" lon="-6.773502"><ele>467.008</ele><time>2019-01-02T14:03:48Z</time></trkpt><trkpt lat="38.320406" lon="-6.773555"><ele>466.316</ele><time>2019-01-02T14:04:02Z</time></trkpt><trkpt lat="38.320326" lon="-6.773609"><ele>466.224</ele><time>2019-01-02T14:04:11Z</time></trkpt><trkpt lat="38.320130" lon="-6.773765"><ele>466.971</ele><time>2019-01-02T14:04:34Z</time></trkpt><trkpt lat="38.320130" lon="-6.773765"><ele>466.958</ele><time>2019-01-02T14:04:34Z</time></trkpt><trkpt lat="38.320063" lon="-6.773845"><ele>467.072</ele><time>2019-01-02T14:04:43Z</time></trkpt><trkpt lat="38.319973" lon="-6.774052"><ele>467.195</ele><time>2019-01-02T14:05:02Z</time></trkpt><trkpt lat="38.319906" lon="-6.774323"><ele>466.783</ele><time>2019-01-02T14:05:24Z</time></trkpt><trkpt lat="38.319899" lon="-6.774771"><ele>465.211</ele><time>2019-01-02T14:05:59Z</time></trkpt><trkpt lat="38.319873" lon="-6.775078"><ele>462.487</ele><time>2019-01-02T14:06:23Z</time></trkpt><trkpt lat="38.319875" lon="-6.775242"><ele>462.542</ele><time>2019-01-02T14:06:36Z</time></trkpt><trkpt lat="38.319775" lon="-6.775656"><ele>463.326</ele><time>2019-01-02T14:07:10Z</time></trkpt><trkpt lat="38.319630" lon="-6.775599"><ele>461.608</ele><time>2019-01-02T14:07:26Z</time></trkpt><trkpt lat="38.319359" lon="-6.775653"><ele>459.591</ele><time>2019-01-02T14:07:53Z</time></trkpt><trkpt lat="38.319207" lon="-6.775696"><ele>457.639</ele><time>2019-01-02T14:08:09Z</time></trkpt><trkpt lat="38.319057" lon="-6.775484"><ele>455.046</ele><time>2019-01-02T14:08:31Z</time></trkpt><trkpt lat="38.318805" lon="-6.775813"><ele>455.273</ele><time>2019-01-02T14:09:07Z</time></trkpt><trkpt lat="38.318607" lon="-6.776129"><ele>453.227</ele><time>2019-01-02T14:09:39Z</time></trkpt><trkpt lat="38.318436" lon="-6.776117"><ele>451.850</ele><time>2019-01-02T14:09:56Z</time></trkpt><trkpt lat="38.318422" lon="-6.776429"><ele>449.268</ele><time>2019-01-02T14:10:21Z</time></trkpt><trkpt lat="38.318517" lon="-6.777164"><ele>445.186</ele><time>2019-01-02T14:11:19Z</time></trkpt><trkpt lat="38.318557" lon="-6.777759"><ele>441.526</ele><time>2019-01-02T14:12:06Z</time></trkpt><trkpt lat="38.318548" lon="-6.778235"><ele>440.347</ele><time>2019-01-02T14:12:43Z</time></trkpt><trkpt lat="38.318436" lon="-6.778452"><ele>438.011</ele><time>2019-01-02T14:13:04Z</time></trkpt><trkpt lat="38.317979" lon="-6.779201"><ele>430.308</ele><time>2019-01-02T14:14:18Z</time></trkpt><trkpt lat="38.317743" lon="-6.778994"><ele>429.395</ele><time>2019-01-02T14:14:47Z</time></trkpt><trkpt lat="38.317515" lon="-6.778958"><ele>428.523</ele><time>2019-01-02T14:15:10Z</time></trkpt><trkpt lat="38.317251" lon="-6.779151"><ele>428.110</ele><time>2019-01-02T14:15:40Z</time></trkpt><trkpt lat="38.317087" lon="-6.779308"><ele>427.027</ele><time>2019-01-02T14:16:01Z</time></trkpt><trkpt lat="38.316823" lon="-6.779322"><ele>425.041</ele><time>2019-01-02T14:16:27Z</time></trkpt><trkpt lat="38.316723" lon="-6.779144"><ele>427.714</ele><time>2019-01-02T14:16:44Z</time></trkpt><trkpt lat="38.316580" lon="-6.778816"><ele>427.082</ele><time>2019-01-02T14:17:14Z</time></trkpt><trkpt lat="38.316544" lon="-6.778709"><ele>426.740</ele><time>2019-01-02T14:17:23Z</time></trkpt><trkpt lat="38.316470" lon="-6.778749"><ele>426.178</ele><time>2019-01-02T14:17:31Z</time></trkpt><trkpt lat="38.316319" lon="-6.779095"><ele>422.233</ele><time>2019-01-02T14:18:02Z</time></trkpt><trkpt lat="38.316172" lon="-6.779427"><ele>422.226</ele><time>2019-01-02T14:18:32Z</time></trkpt><trkpt lat="38.316066" lon="-6.779585"><ele>422.308</ele><time>2019-01-02T14:18:48Z</time></trkpt><trkpt lat="38.315821" lon="-6.780031"><ele>419.380</ele><time>2019-01-02T14:19:31Z</time></trkpt><trkpt lat="38.315692" lon="-6.780220"><ele>417.138</ele><time>2019-01-02T14:19:51Z</time></trkpt><trkpt lat="38.315465" lon="-6.780355"><ele>415.375</ele><time>2019-01-02T14:20:16Z</time></trkpt><trkpt lat="38.315215" lon="-6.780376"><ele>414.152</ele><time>2019-01-02T14:20:41Z</time></trkpt><trkpt lat="38.315044" lon="-6.780448"><ele>413.386</ele><time>2019-01-02T14:20:59Z</time></trkpt><trkpt lat="38.314629" lon="-6.780823"><ele>411.479</ele><time>2019-01-02T14:21:50Z</time></trkpt><trkpt lat="38.314485" lon="-6.781019"><ele>411.077</ele><time>2019-01-02T14:22:11Z</time></trkpt><trkpt lat="38.314485" lon="-6.781019"><ele>411.095</ele><time>2019-01-02T14:22:11Z</time></trkpt><trkpt lat="38.314281" lon="-6.781443"><ele>410.197</ele><time>2019-01-02T14:22:50Z</time></trkpt><trkpt lat="38.314133" lon="-6.781762"><ele>409.523</ele><time>2019-01-02T14:23:19Z</time></trkpt><trkpt lat="38.314016" lon="-6.782042"><ele>408.825</ele><time>2019-01-02T14:23:44Z</time></trkpt><trkpt lat="38.313803" lon="-6.782216"><ele>406.608</ele><time>2019-01-02T14:24:09Z</time></trkpt><trkpt lat="38.313657" lon="-6.782293"><ele>405.532</ele><time>2019-01-02T14:24:25Z</time></trkpt><trkpt lat="38.313396" lon="-6.782547"><ele>403.110</ele><time>2019-01-02T14:24:58Z</time></trkpt><trkpt lat="38.313072" lon="-6.782805"><ele>399.537</ele><time>2019-01-02T14:25:36Z</time></trkpt><trkpt lat="38.312741" lon="-6.783176"><ele>396.964</ele><time>2019-01-02T14:26:20Z</time></trkpt><trkpt lat="38.312538" lon="-6.783352"><ele>396.018</ele><time>2019-01-02T14:26:45Z</time></trkpt><trkpt lat="38.312167" lon="-6.783605"><ele>394.421</ele><time>2019-01-02T14:27:27Z</time></trkpt><trkpt lat="38.311829" lon="-6.783857"><ele>393.799</ele><time>2019-01-02T14:28:06Z</time></trkpt><trkpt lat="38.311522" lon="-6.784233"><ele>392.857</ele><time>2019-01-02T14:28:49Z</time></trkpt><trkpt lat="38.311283" lon="-6.784529"><ele>391.446</ele><time>2019-01-02T14:29:22Z</time></trkpt><trkpt lat="38.311073" lon="-6.784958"><ele>390.888</ele><time>2019-01-02T14:30:02Z</time></trkpt><trkpt lat="38.310862" lon="-6.785452"><ele>390.716</ele><time>2019-01-02T14:30:46Z</time></trkpt><trkpt lat="38.310816" lon="-6.785584"><ele>390.608</ele><time>2019-01-02T14:30:57Z</time></trkpt><trkpt lat="38.310822" lon="-6.785887"><ele>389.327</ele><time>2019-01-02T14:31:21Z</time></trkpt><trkpt lat="38.311285" lon="-6.786329"><ele>382.925</ele><time>2019-01-02T14:32:19Z</time></trkpt><trkpt lat="38.311529" lon="-6.786516"><ele>380.242</ele><time>2019-01-02T14:32:48Z</time></trkpt><trkpt lat="38.311700" lon="-6.786667"><ele>378.449</ele><time>2019-01-02T14:33:08Z</time></trkpt><trkpt lat="38.311861" lon="-6.786865"><ele>377.133</ele><time>2019-01-02T14:33:31Z</time></trkpt><trkpt lat="38.312159" lon="-6.787206"><ele>374.866</ele><time>2019-01-02T14:34:11Z</time></trkpt><trkpt lat="38.312509" lon="-6.787584"><ele>372.444</ele><time>2019-01-02T14:34:57Z</time></trkpt><trkpt lat="38.312756" lon="-6.787850"><ele>370.392</ele><time>2019-01-02T14:35:29Z</time></trkpt><trkpt lat="38.313114" lon="-6.788161"><ele>367.227</ele><time>2019-01-02T14:36:13Z</time></trkpt><trkpt lat="38.313192" lon="-6.788601"><ele>365.268</ele><time>2019-01-02T14:36:48Z</time></trkpt><trkpt lat="38.313249" lon="-6.789135"><ele>362.214</ele><time>2019-01-02T14:37:30Z</time></trkpt><trkpt lat="38.313432" lon="-6.789879"><ele>357.208</ele><time>2019-01-02T14:38:32Z</time></trkpt><trkpt lat="38.313518" lon="-6.790305"><ele>353.965</ele><time>2019-01-02T14:39:06Z</time></trkpt><trkpt lat="38.313679" lon="-6.791173"><ele>350.983</ele><time>2019-01-02T14:40:16Z</time></trkpt><trkpt lat="38.313796" lon="-6.791441"><ele>351.060</ele><time>2019-01-02T14:40:40Z</time></trkpt><trkpt lat="38.313954" lon="-6.791517"><ele>350.987</ele><time>2019-01-02T14:40:57Z</time></trkpt><trkpt lat="38.314161" lon="-6.791418"><ele>351.451</ele><time>2019-01-02T14:41:19Z</time></trkpt><trkpt lat="38.314393" lon="-6.791346"><ele>351.714</ele><time>2019-01-02T14:41:43Z</time></trkpt><trkpt lat="38.315012" lon="-6.791306"><ele>352.492</ele><time>2019-01-02T14:42:45Z</time></trkpt><trkpt lat="38.315016" lon="-6.791247"><ele>353.250</ele><time>2019-01-02T14:42:50Z</time></trkpt><trkpt lat="38.314915" lon="-6.791173"><ele>354.337</ele><time>2019-01-02T14:43:01Z</time></trkpt><trkpt lat="38.314487" lon="-6.791171"><ele>354.849</ele><time>2019-01-02T14:43:44Z</time></trkpt><trkpt lat="38.314264" lon="-6.791176"><ele>354.113</ele><time>2019-01-02T14:44:07Z</time></trkpt><trkpt lat="38.314127" lon="-6.791147"><ele>354.208</ele><time>2019-01-02T14:44:20Z</time></trkpt><trkpt lat="38.314127" lon="-6.791147"><ele>354.236</ele><time>2019-01-02T14:44:20Z</time></trkpt><trkpt lat="38.314004" lon="-6.791099"><ele>354.344</ele><time>2019-01-02T14:44:33Z</time></trkpt><trkpt lat="38.314000" lon="-6.791053"><ele>354.561</ele><time>2019-01-02T14:44:37Z</time></trkpt><trkpt lat="38.314000" lon="-6.790985"><ele>354.958</ele><time>2019-01-02T14:44:42Z</time></trkpt><trkpt lat="38.313997" lon="-6.790928"><ele>355.222</ele><time>2019-01-02T14:44:47Z</time></trkpt><trkpt lat="38.313988" lon="-6.790869"><ele>355.435</ele><time>2019-01-02T14:44:52Z</time></trkpt><trkpt lat="38.313946" lon="-6.790742"><ele>355.323</ele><time>2019-01-02T14:45:02Z</time></trkpt><trkpt lat="38.313896" lon="-6.790506"><ele>355.521</ele><time>2019-01-02T14:45:22Z</time></trkpt><trkpt lat="38.313849" lon="-6.790305"><ele>355.867</ele><time>2019-01-02T14:45:38Z</time></trkpt><trkpt lat="38.313800" lon="-6.790275"><ele>355.381</ele><time>2019-01-02T14:45:43Z</time></trkpt><trkpt lat="38.313684" lon="-6.790297"><ele>354.119</ele><time>2019-01-02T14:45:55Z</time></trkpt><trkpt lat="38.313585" lon="-6.790329"><ele>353.908</ele><time>2019-01-02T14:46:05Z</time></trkpt><trkpt lat="38.313544" lon="-6.790341"><ele>353.929</ele><time>2019-01-02T14:46:10Z</time></trkpt><trkpt lat="38.313518" lon="-6.790305"><ele>353.977</ele><time>2019-01-02T14:46:13Z</time></trkpt><trkpt lat="38.313457" lon="-6.790009"><ele>355.844</ele><time>2019-01-02T14:46:37Z</time></trkpt><trkpt lat="38.313416" lon="-6.789792"><ele>358.261</ele><time>2019-01-02T14:46:55Z</time></trkpt><trkpt lat="38.313340" lon="-6.789511"><ele>360.355</ele><time>2019-01-02T14:47:18Z</time></trkpt><trkpt lat="38.313261" lon="-6.789281"><ele>361.428</ele><time>2019-01-02T14:47:38Z</time></trkpt><trkpt lat="38.313244" lon="-6.789065"><ele>362.496</ele><time>2019-01-02T14:47:55Z</time></trkpt><trkpt lat="38.313224" lon="-6.788844"><ele>363.594</ele><time>2019-01-02T14:48:13Z</time></trkpt><trkpt lat="38.313214" lon="-6.788601"><ele>365.038</ele><time>2019-01-02T14:48:32Z</time></trkpt><trkpt lat="38.313178" lon="-6.788404"><ele>366.470</ele><time>2019-01-02T14:48:48Z</time></trkpt><trkpt lat="38.313176" lon="-6.788362"><ele>366.617</ele><time>2019-01-02T14:48:51Z</time></trkpt><trkpt lat="38.313114" lon="-6.788161"><ele>367.208</ele><time>2019-01-02T14:49:08Z</time></trkpt><trkpt lat="38.313036" lon="-6.788076"><ele>368.766</ele><time>2019-01-02T14:49:18Z</time></trkpt><trkpt lat="38.312756" lon="-6.787850"><ele>370.394</ele><time>2019-01-02T14:49:51Z</time></trkpt><trkpt lat="38.312428" lon="-6.787496"><ele>372.761</ele><time>2019-01-02T14:50:34Z</time></trkpt><trkpt lat="38.312129" lon="-6.787174"><ele>375.358</ele><time>2019-01-02T14:51:13Z</time></trkpt><trkpt lat="38.311880" lon="-6.786885"><ele>376.952</ele><time>2019-01-02T14:51:47Z</time></trkpt><trkpt lat="38.311513" lon="-6.786499"><ele>380.435</ele><time>2019-01-02T14:52:35Z</time></trkpt><trkpt lat="38.311220" lon="-6.786280"><ele>384.153</ele><time>2019-01-02T14:53:09Z</time></trkpt><trkpt lat="38.310932" lon="-6.786027"><ele>387.351</ele><time>2019-01-02T14:53:44Z</time></trkpt><trkpt lat="38.310859" lon="-6.785946"><ele>388.675</ele><time>2019-01-02T14:53:53Z</time></trkpt><trkpt lat="38.310822" lon="-6.785887"><ele>389.328</ele><time>2019-01-02T14:53:59Z</time></trkpt><trkpt lat="38.310806" lon="-6.785784"><ele>389.920</ele><time>2019-01-02T14:54:08Z</time></trkpt><trkpt lat="38.310802" lon="-6.785701"><ele>390.308</ele><time>2019-01-02T14:54:14Z</time></trkpt><trkpt lat="38.310816" lon="-6.785584"><ele>390.650</ele><time>2019-01-02T14:54:23Z</time></trkpt><trkpt lat="38.310854" lon="-6.785474"><ele>390.748</ele><time>2019-01-02T14:54:33Z</time></trkpt><trkpt lat="38.310898" lon="-6.785357"><ele>390.685</ele><time>2019-01-02T14:54:43Z</time></trkpt><trkpt lat="38.311196" lon="-6.784676"><ele>391.042</ele><time>2019-01-02T14:55:44Z</time></trkpt><trkpt lat="38.311283" lon="-6.784529"><ele>391.486</ele><time>2019-01-02T14:55:59Z</time></trkpt><trkpt lat="38.311440" lon="-6.784328"><ele>392.489</ele><time>2019-01-02T14:56:21Z</time></trkpt><trkpt lat="38.311572" lon="-6.784175"><ele>393.137</ele><time>2019-01-02T14:56:39Z</time></trkpt><trkpt lat="38.311795" lon="-6.783929"><ele>394.285</ele><time>2019-01-02T14:57:08Z</time></trkpt><trkpt lat="38.311900" lon="-6.783821"><ele>394.087</ele><time>2019-01-02T14:57:22Z</time></trkpt><trkpt lat="38.312013" lon="-6.783719"><ele>394.242</ele><time>2019-01-02T14:57:36Z</time></trkpt><trkpt lat="38.312190" lon="-6.783588"><ele>394.426</ele><time>2019-01-02T14:57:56Z</time></trkpt><trkpt lat="38.312519" lon="-6.783365"><ele>395.908</ele><time>2019-01-02T14:58:34Z</time></trkpt><trkpt lat="38.312610" lon="-6.783304"><ele>396.031</ele><time>2019-01-02T14:58:44Z</time></trkpt><trkpt lat="38.312702" lon="-6.783224"><ele>396.599</ele><time>2019-01-02T14:58:55Z</time></trkpt><trkpt lat="38.312793" lon="-6.783112"><ele>397.336</ele><time>2019-01-02T14:59:08Z</time></trkpt><trkpt lat="38.312895" lon="-6.783003"><ele>397.973</ele><time>2019-01-02T14:59:21Z</time></trkpt><trkpt lat="38.313037" lon="-6.782838"><ele>399.217</ele><time>2019-01-02T14:59:40Z</time></trkpt><trkpt lat="38.313196" lon="-6.782687"><ele>400.540</ele><time>2019-01-02T15:00:00Z</time></trkpt><trkpt lat="38.313308" lon="-6.782610"><ele>401.998</ele><time>2019-01-02T15:00:13Z</time></trkpt><trkpt lat="38.313467" lon="-6.782497"><ele>403.996</ele><time>2019-01-02T15:00:31Z</time></trkpt><trkpt lat="38.313571" lon="-6.782374"><ele>404.884</ele><time>2019-01-02T15:00:45Z</time></trkpt><trkpt lat="38.313657" lon="-6.782293"><ele>405.507</ele><time>2019-01-02T15:00:56Z</time></trkpt><trkpt lat="38.313865" lon="-6.782183"><ele>407.217</ele><time>2019-01-02T15:01:18Z</time></trkpt><trkpt lat="38.313947" lon="-6.782116"><ele>408.108</ele><time>2019-01-02T15:01:28Z</time></trkpt><trkpt lat="38.314016" lon="-6.782042"><ele>408.841</ele><time>2019-01-02T15:01:37Z</time></trkpt><trkpt lat="38.314059" lon="-6.781944"><ele>409.229</ele><time>2019-01-02T15:01:46Z</time></trkpt><trkpt lat="38.314133" lon="-6.781762"><ele>409.536</ele><time>2019-01-02T15:02:02Z</time></trkpt><trkpt lat="38.314207" lon="-6.781590"><ele>409.753</ele><time>2019-01-02T15:02:17Z</time></trkpt><trkpt lat="38.314281" lon="-6.781443"><ele>410.177</ele><time>2019-01-02T15:02:31Z</time></trkpt><trkpt lat="38.314362" lon="-6.781250"><ele>410.680</ele><time>2019-01-02T15:02:48Z</time></trkpt><trkpt lat="38.314485" lon="-6.781019"><ele>411.088</ele><time>2019-01-02T15:03:10Z</time></trkpt><trkpt lat="38.314657" lon="-6.780786"><ele>411.486</ele><time>2019-01-02T15:03:35Z</time></trkpt><trkpt lat="38.314846" lon="-6.780579"><ele>412.568</ele><time>2019-01-02T15:04:00Z</time></trkpt><trkpt lat="38.314982" lon="-6.780463"><ele>413.042</ele><time>2019-01-02T15:04:17Z</time></trkpt><trkpt lat="38.315030" lon="-6.780428"><ele>413.326</ele><time>2019-01-02T15:04:22Z</time></trkpt><trkpt lat="38.315158" lon="-6.780391"><ele>413.908</ele><time>2019-01-02T15:04:35Z</time></trkpt><trkpt lat="38.315288" lon="-6.780356"><ele>414.549</ele><time>2019-01-02T15:04:49Z</time></trkpt><trkpt lat="38.315400" lon="-6.780343"><ele>415.117</ele><time>2019-01-02T15:05:00Z</time></trkpt><trkpt lat="38.315485" lon="-6.780321"><ele>415.554</ele><time>2019-01-02T15:05:09Z</time></trkpt><trkpt lat="38.315575" lon="-6.780288"><ele>416.071</ele><time>2019-01-02T15:05:18Z</time></trkpt><trkpt lat="38.315654" lon="-6.780233"><ele>416.735</ele><time>2019-01-02T15:05:27Z</time></trkpt><trkpt lat="38.315705" lon="-6.780190"><ele>417.468</ele><time>2019-01-02T15:05:33Z</time></trkpt><trkpt lat="38.315782" lon="-6.780073"><ele>418.766</ele><time>2019-01-02T15:05:45Z</time></trkpt><trkpt lat="38.315861" lon="-6.779899"><ele>420.244</ele><time>2019-01-02T15:06:01Z</time></trkpt><trkpt lat="38.315963" lon="-6.779699"><ele>421.535</ele><time>2019-01-02T15:06:20Z</time></trkpt><trkpt lat="38.316027" lon="-6.779590"><ele>422.186</ele><time>2019-01-02T15:06:30Z</time></trkpt><trkpt lat="38.316153" lon="-6.779425"><ele>422.314</ele><time>2019-01-02T15:06:48Z</time></trkpt><trkpt lat="38.316195" lon="-6.779349"><ele>421.608</ele><time>2019-01-02T15:06:56Z</time></trkpt><trkpt lat="38.316235" lon="-6.779252"><ele>421.246</ele><time>2019-01-02T15:07:04Z</time></trkpt><trkpt lat="38.316307" lon="-6.779075"><ele>422.274</ele><time>2019-01-02T15:07:20Z</time></trkpt><trkpt lat="38.316324" lon="-6.779026"><ele>422.871</ele><time>2019-01-02T15:07:24Z</time></trkpt><trkpt lat="38.316353" lon="-6.778972"><ele>423.658</ele><time>2019-01-02T15:07:29Z</time></trkpt><trkpt lat="38.316372" lon="-6.778882"><ele>424.592</ele><time>2019-01-02T15:07:37Z</time></trkpt><trkpt lat="38.316416" lon="-6.778791"><ele>425.535</ele><time>2019-01-02T15:07:45Z</time></trkpt><trkpt lat="38.316453" lon="-6.778719"><ele>426.193</ele><time>2019-01-02T15:07:52Z</time></trkpt><trkpt lat="38.316505" lon="-6.778627"><ele>426.671</ele><time>2019-01-02T15:08:01Z</time></trkpt><trkpt lat="38.316556" lon="-6.778539"><ele>426.849</ele><time>2019-01-02T15:08:09Z</time></trkpt><trkpt lat="38.316584" lon="-6.778452"><ele>427.002</ele><time>2019-01-02T15:08:17Z</time></trkpt><trkpt lat="38.316614" lon="-6.778331"><ele>427.222</ele><time>2019-01-02T15:08:27Z</time></trkpt><trkpt lat="38.316635" lon="-6.778213"><ele>427.508</ele><time>2019-01-02T15:08:36Z</time></trkpt><trkpt lat="38.316673" lon="-6.777991"><ele>428.147</ele><time>2019-01-02T15:08:54Z</time></trkpt><trkpt lat="38.316691" lon="-6.777671"><ele>428.595</ele><time>2019-01-02T15:09:19Z</time></trkpt><trkpt lat="38.316740" lon="-6.777374"><ele>429.042</ele><time>2019-01-02T15:09:43Z</time></trkpt><trkpt lat="38.316809" lon="-6.777154"><ele>429.379</ele><time>2019-01-02T15:10:02Z</time></trkpt><trkpt lat="38.317021" lon="-6.776979"><ele>429.693</ele><time>2019-01-02T15:10:27Z</time></trkpt><trkpt lat="38.317273" lon="-6.776792"><ele>431.676</ele><time>2019-01-02T15:10:56Z</time></trkpt><trkpt lat="38.317339" lon="-6.776642"><ele>431.474</ele><time>2019-01-02T15:11:10Z</time></trkpt><trkpt lat="38.317377" lon="-6.776463"><ele>431.782</ele><time>2019-01-02T15:11:24Z</time></trkpt><trkpt lat="38.317401" lon="-6.776247"><ele>432.475</ele><time>2019-01-02T15:11:41Z</time></trkpt><trkpt lat="38.317444" lon="-6.776042"><ele>433.428</ele><time>2019-01-02T15:11:58Z</time></trkpt><trkpt lat="38.317522" lon="-6.775847"><ele>434.420</ele><time>2019-01-02T15:12:15Z</time></trkpt><trkpt lat="38.317590" lon="-6.775701"><ele>435.508</ele><time>2019-01-02T15:12:28Z</time></trkpt><trkpt lat="38.317696" lon="-6.775494"><ele>437.170</ele><time>2019-01-02T15:12:48Z</time></trkpt><trkpt lat="38.317823" lon="-6.775273"><ele>439.078</ele><time>2019-01-02T15:13:09Z</time></trkpt><trkpt lat="38.317914" lon="-6.775161"><ele>439.655</ele><time>2019-01-02T15:13:22Z</time></trkpt><trkpt lat="38.317991" lon="-6.775083"><ele>440.122</ele><time>2019-01-02T15:13:32Z</time></trkpt><trkpt lat="38.318053" lon="-6.774973"><ele>440.486</ele><time>2019-01-02T15:13:42Z</time></trkpt><trkpt lat="38.318096" lon="-6.774903"><ele>440.689</ele><time>2019-01-02T15:13:49Z</time></trkpt><trkpt lat="38.318115" lon="-6.774801"><ele>440.447</ele><time>2019-01-02T15:13:58Z</time></trkpt><trkpt lat="38.318160" lon="-6.774699"><ele>440.575</ele><time>2019-01-02T15:14:07Z</time></trkpt><trkpt lat="38.318199" lon="-6.774620"><ele>440.859</ele><time>2019-01-02T15:14:14Z</time></trkpt><trkpt lat="38.318230" lon="-6.774543"><ele>441.003</ele><time>2019-01-02T15:14:21Z</time></trkpt><trkpt lat="38.318241" lon="-6.774452"><ele>441.123</ele><time>2019-01-02T15:14:28Z</time></trkpt><trkpt lat="38.318239" lon="-6.774414"><ele>441.108</ele><time>2019-01-02T15:14:31Z</time></trkpt><trkpt lat="38.318129" lon="-6.774411"><ele>440.728</ele><time>2019-01-02T15:14:42Z</time></trkpt><trkpt lat="38.317989" lon="-6.774433"><ele>440.096</ele><time>2019-01-02T15:14:56Z</time></trkpt><trkpt lat="38.317874" lon="-6.774451"><ele>439.413</ele><time>2019-01-02T15:15:08Z</time></trkpt><trkpt lat="38.317772" lon="-6.774451"><ele>438.710</ele><time>2019-01-02T15:15:18Z</time></trkpt><trkpt lat="38.317700" lon="-6.774400"><ele>438.694</ele><time>2019-01-02T15:15:26Z</time></trkpt><trkpt lat="38.317673" lon="-6.774277"><ele>439.887</ele><time>2019-01-02T15:15:36Z</time></trkpt><trkpt lat="38.317667" lon="-6.774124"><ele>441.895</ele><time>2019-01-02T15:15:48Z</time></trkpt><trkpt lat="38.317694" lon="-6.774046"><ele>442.923</ele><time>2019-01-02T15:15:55Z</time></trkpt><trkpt lat="38.317753" lon="-6.774001"><ele>443.665</ele><time>2019-01-02T15:16:02Z</time></trkpt><trkpt lat="38.317759" lon="-6.773934"><ele>444.768</ele><time>2019-01-02T15:16:07Z</time></trkpt><trkpt lat="38.317748" lon="-6.773794"><ele>447.014</ele><time>2019-01-02T15:16:18Z</time></trkpt><trkpt lat="38.317716" lon="-6.773657"><ele>449.408</ele><time>2019-01-02T15:16:30Z</time></trkpt><trkpt lat="38.317657" lon="-6.773606"><ele>450.369</ele><time>2019-01-02T15:16:37Z</time></trkpt><trkpt lat="38.317587" lon="-6.773593"><ele>450.657</ele><time>2019-01-02T15:16:44Z</time></trkpt><trkpt lat="38.317571" lon="-6.773502"><ele>452.094</ele><time>2019-01-02T15:16:51Z</time></trkpt><trkpt lat="38.317528" lon="-6.773437"><ele>453.411</ele><time>2019-01-02T15:16:58Z</time></trkpt><trkpt lat="38.317455" lon="-6.773333"><ele>455.625</ele><time>2019-01-02T15:17:09Z</time></trkpt><trkpt lat="38.317480" lon="-6.773285"><ele>456.518</ele><time>2019-01-02T15:17:13Z</time></trkpt><trkpt lat="38.317539" lon="-6.773215"><ele>457.996</ele><time>2019-01-02T15:17:21Z</time></trkpt><trkpt lat="38.317587" lon="-6.773148"><ele>459.384</ele><time>2019-01-02T15:17:28Z</time></trkpt><trkpt lat="38.317662" lon="-6.773083"><ele>460.678</ele><time>2019-01-02T15:17:38Z</time></trkpt><trkpt lat="38.317734" lon="-6.772990"><ele>462.533</ele><time>2019-01-02T15:17:48Z</time></trkpt><trkpt lat="38.317764" lon="-6.772922"><ele>463.926</ele><time>2019-01-02T15:17:54Z</time></trkpt><trkpt lat="38.317756" lon="-6.772869"><ele>464.908</ele><time>2019-01-02T15:17:58Z</time></trkpt><trkpt lat="38.317689" lon="-6.772834"><ele>465.690</ele><time>2019-01-02T15:18:05Z</time></trkpt><trkpt lat="38.317584" lon="-6.772823"><ele>465.938</ele><time>2019-01-02T15:18:16Z</time></trkpt><trkpt lat="38.317474" lon="-6.772799"><ele>466.375</ele><time>2019-01-02T15:18:27Z</time></trkpt><trkpt lat="38.317391" lon="-6.772775"><ele>466.682</ele><time>2019-01-02T15:18:36Z</time></trkpt><trkpt lat="38.317273" lon="-6.772737"><ele>466.936</ele><time>2019-01-02T15:18:48Z</time></trkpt><trkpt lat="38.317182" lon="-6.772735"><ele>466.999</ele><time>2019-01-02T15:18:57Z</time></trkpt><trkpt lat="38.317099" lon="-6.772727"><ele>467.277</ele><time>2019-01-02T15:19:05Z</time></trkpt><trkpt lat="38.317034" lon="-6.772692"><ele>467.635</ele><time>2019-01-02T15:19:12Z</time></trkpt><trkpt lat="38.316975" lon="-6.772649"><ele>467.947</ele><time>2019-01-02T15:19:19Z</time></trkpt><trkpt lat="38.316927" lon="-6.772603"><ele>468.029</ele><time>2019-01-02T15:19:25Z</time></trkpt><trkpt lat="38.316860" lon="-6.772585"><ele>468.121</ele><time>2019-01-02T15:19:32Z</time></trkpt><trkpt lat="38.316820" lon="-6.772563"><ele>468.108</ele><time>2019-01-02T15:19:36Z</time></trkpt><trkpt lat="38.316769" lon="-6.772531"><ele>468.027</ele><time>2019-01-02T15:19:42Z</time></trkpt><trkpt lat="38.316678" lon="-6.772440"><ele>466.085</ele><time>2019-01-02T15:19:54Z</time></trkpt><trkpt lat="38.316664" lon="-6.772373"><ele>465.232</ele><time>2019-01-02T15:19:59Z</time></trkpt><trkpt lat="38.316670" lon="-6.772292"><ele>464.649</ele><time>2019-01-02T15:20:05Z</time></trkpt><trkpt lat="38.316710" lon="-6.772198"><ele>464.933</ele><time>2019-01-02T15:20:14Z</time></trkpt><trkpt lat="38.316723" lon="-6.772139"><ele>464.726</ele><time>2019-01-02T15:20:19Z</time></trkpt><trkpt lat="38.316763" lon="-6.772053"><ele>465.674</ele><time>2019-01-02T15:20:26Z</time></trkpt><trkpt lat="38.316796" lon="-6.771962"><ele>464.932</ele><time>2019-01-02T15:20:34Z</time></trkpt><trkpt lat="38.316831" lon="-6.771868"><ele>463.574</ele><time>2019-01-02T15:20:43Z</time></trkpt><trkpt lat="38.316868" lon="-6.771772"><ele>462.656</ele><time>2019-01-02T15:20:51Z</time></trkpt><trkpt lat="38.316903" lon="-6.771683"><ele>462.521</ele><time>2019-01-02T15:20:59Z</time></trkpt><trkpt lat="38.316957" lon="-6.771573"><ele>463.208</ele><time>2019-01-02T15:21:09Z</time></trkpt><trkpt lat="38.317050" lon="-6.771348"><ele>462.790</ele><time>2019-01-02T15:21:29Z</time></trkpt><trkpt lat="38.317091" lon="-6.771266"><ele>461.958</ele><time>2019-01-02T15:21:37Z</time></trkpt><trkpt lat="38.317123" lon="-6.771138"><ele>459.695</ele><time>2019-01-02T15:21:47Z</time></trkpt><trkpt lat="38.317208" lon="-6.771067"><ele>460.332</ele><time>2019-01-02T15:21:57Z</time></trkpt><trkpt lat="38.317308" lon="-6.770970"><ele>460.676</ele><time>2019-01-02T15:22:10Z</time></trkpt><trkpt lat="38.317405" lon="-6.770887"><ele>460.919</ele><time>2019-01-02T15:22:22Z</time></trkpt><trkpt lat="38.317650" lon="-6.770678"><ele>460.947</ele><time>2019-01-02T15:22:51Z</time></trkpt><trkpt lat="38.317826" lon="-6.770561"><ele>460.395</ele><time>2019-01-02T15:23:11Z</time></trkpt><trkpt lat="38.317893" lon="-6.770598"><ele>461.533</ele><time>2019-01-02T15:23:18Z</time></trkpt><trkpt lat="38.317933" lon="-6.770619"><ele>462.223</ele><time>2019-01-02T15:23:23Z</time></trkpt><trkpt lat="38.317970" lon="-6.770646"><ele>463.315</ele><time>2019-01-02T15:23:27Z</time></trkpt><trkpt lat="38.317968" lon="-6.770791"><ele>465.908</ele><time>2019-01-02T15:23:38Z</time></trkpt><trkpt lat="38.317968" lon="-6.770858"><ele>467.016</ele><time>2019-01-02T15:23:43Z</time></trkpt><trkpt lat="38.318013" lon="-6.770878"><ele>468.034</ele><time>2019-01-02T15:23:48Z</time></trkpt><trkpt lat="38.318062" lon="-6.770952"><ele>469.781</ele><time>2019-01-02T15:23:56Z</time></trkpt><trkpt lat="38.318089" lon="-6.770991"><ele>470.718</ele><time>2019-01-02T15:24:00Z</time></trkpt><trkpt lat="38.318120" lon="-6.771063"><ele>472.022</ele><time>2019-01-02T15:24:06Z</time></trkpt><trkpt lat="38.318162" lon="-6.771152"><ele>473.375</ele><time>2019-01-02T15:24:14Z</time></trkpt><trkpt lat="38.318182" lon="-6.771256"><ele>474.723</ele><time>2019-01-02T15:24:23Z</time></trkpt><trkpt lat="38.318184" lon="-6.771460"><ele>477.121</ele><time>2019-01-02T15:24:39Z</time></trkpt><trkpt lat="38.318182" lon="-6.771657"><ele>478.891</ele><time>2019-01-02T15:24:54Z</time></trkpt><trkpt lat="38.318189" lon="-6.771712"><ele>479.281</ele><time>2019-01-02T15:24:59Z</time></trkpt><trkpt lat="38.318257" lon="-6.771712"><ele>478.819</ele><time>2019-01-02T15:25:06Z</time></trkpt><trkpt lat="38.318308" lon="-6.771715"><ele>478.608</ele><time>2019-01-02T15:25:11Z</time></trkpt><trkpt lat="38.318404" lon="-6.771727"><ele>478.592</ele><time>2019-01-02T15:25:20Z</time></trkpt><trkpt lat="38.318505" lon="-6.771723"><ele>479.270</ele><time>2019-01-02T15:25:30Z</time></trkpt><trkpt lat="38.318567" lon="-6.771781"><ele>479.327</ele><time>2019-01-02T15:25:38Z</time></trkpt><trkpt lat="38.318591" lon="-6.771805"><ele>479.344</ele><time>2019-01-02T15:25:41Z</time></trkpt><trkpt lat="38.318636" lon="-6.771790"><ele>480.068</ele><time>2019-01-02T15:25:46Z</time></trkpt><trkpt lat="38.318709" lon="-6.771769"><ele>481.271</ele><time>2019-01-02T15:25:53Z</time></trkpt><trkpt lat="38.318754" lon="-6.771754"><ele>482.259</ele><time>2019-01-02T15:25:58Z</time></trkpt><trkpt lat="38.318804" lon="-6.771746"><ele>483.217</ele><time>2019-01-02T15:26:03Z</time></trkpt><trkpt lat="38.318879" lon="-6.771721"><ele>483.696</ele><time>2019-01-02T15:26:11Z</time></trkpt><trkpt lat="38.318973" lon="-6.771681"><ele>483.731</ele><time>2019-01-02T15:26:21Z</time></trkpt><trkpt lat="38.319144" lon="-6.771582"><ele>483.824</ele><time>2019-01-02T15:26:40Z</time></trkpt><trkpt lat="38.319252" lon="-6.771485"><ele>482.908</ele><time>2019-01-02T15:26:53Z</time></trkpt><trkpt lat="38.319335" lon="-6.771432"><ele>482.272</ele><time>2019-01-02T15:27:02Z</time></trkpt><trkpt lat="38.319461" lon="-6.771281"><ele>482.380</ele><time>2019-01-02T15:27:19Z</time></trkpt><trkpt lat="38.319522" lon="-6.771185"><ele>482.197</ele><time>2019-01-02T15:27:29Z</time></trkpt><trkpt lat="38.319528" lon="-6.771129"><ele>482.384</ele><time>2019-01-02T15:27:33Z</time></trkpt><trkpt lat="38.319506" lon="-6.771086"><ele>482.738</ele><time>2019-01-02T15:27:37Z</time></trkpt><trkpt lat="38.319359" lon="-6.771013"><ele>485.761</ele><time>2019-01-02T15:27:53Z</time></trkpt><trkpt lat="38.319257" lon="-6.770960"><ele>487.619</ele><time>2019-01-02T15:28:04Z</time></trkpt><trkpt lat="38.319150" lon="-6.770895"><ele>488.887</ele><time>2019-01-02T15:28:16Z</time></trkpt><trkpt lat="38.319013" lon="-6.770785"><ele>488.851</ele><time>2019-01-02T15:28:32Z</time></trkpt><trkpt lat="38.318911" lon="-6.770702"><ele>488.001</ele><time>2019-01-02T15:28:44Z</time></trkpt><trkpt lat="38.318916" lon="-6.770538"><ele>486.811</ele><time>2019-01-02T15:28:57Z</time></trkpt><trkpt lat="38.318930" lon="-6.770461"><ele>486.408</ele><time>2019-01-02T15:29:04Z</time></trkpt><trkpt lat="38.319032" lon="-6.770386"><ele>487.858</ele><time>2019-01-02T15:29:15Z</time></trkpt><trkpt lat="38.319123" lon="-6.770388"><ele>489.246</ele><time>2019-01-02T15:29:24Z</time></trkpt><trkpt lat="38.319190" lon="-6.770407"><ele>489.423</ele><time>2019-01-02T15:29:31Z</time></trkpt><trkpt lat="38.319249" lon="-6.770453"><ele>489.770</ele><time>2019-01-02T15:29:38Z</time></trkpt><trkpt lat="38.319270" lon="-6.770482"><ele>489.794</ele><time>2019-01-02T15:29:41Z</time></trkpt><trkpt lat="38.319276" lon="-6.770662"><ele>489.727</ele><time>2019-01-02T15:29:56Z</time></trkpt><trkpt lat="38.319276" lon="-6.770777"><ele>489.365</ele><time>2019-01-02T15:30:05Z</time></trkpt><trkpt lat="38.319289" lon="-6.770876"><ele>488.313</ele><time>2019-01-02T15:30:12Z</time></trkpt><trkpt lat="38.319303" lon="-6.770917"><ele>487.756</ele><time>2019-01-02T15:30:16Z</time></trkpt><trkpt lat="38.319335" lon="-6.770962"><ele>486.759</ele><time>2019-01-02T15:30:21Z</time></trkpt><trkpt lat="38.319386" lon="-6.770997"><ele>485.414</ele><time>2019-01-02T15:30:26Z</time></trkpt><trkpt lat="38.319437" lon="-6.771024"><ele>484.208</ele><time>2019-01-02T15:30:32Z</time></trkpt><trkpt lat="38.319492" lon="-6.771067"><ele>483.028</ele><time>2019-01-02T15:30:38Z</time></trkpt><trkpt lat="38.319594" lon="-6.771134"><ele>481.796</ele><time>2019-01-02T15:30:50Z</time></trkpt><trkpt lat="38.319647" lon="-6.771176"><ele>481.163</ele><time>2019-01-02T15:30:56Z</time></trkpt><trkpt lat="38.319664" lon="-6.771211"><ele>480.880</ele><time>2019-01-02T15:30:59Z</time></trkpt><trkpt lat="38.319634" lon="-6.771415"><ele>479.754</ele><time>2019-01-02T15:31:16Z</time></trkpt><trkpt lat="38.319605" lon="-6.771547"><ele>478.427</ele><time>2019-01-02T15:31:26Z</time></trkpt><trkpt lat="38.319615" lon="-6.771584"><ele>477.955</ele><time>2019-01-02T15:31:30Z</time></trkpt><trkpt lat="38.319787" lon="-6.771627"><ele>476.923</ele><time>2019-01-02T15:31:47Z</time></trkpt><trkpt lat="38.319881" lon="-6.771643"><ele>477.179</ele><time>2019-01-02T15:31:57Z</time></trkpt><trkpt lat="38.319972" lon="-6.771632"><ele>477.605</ele><time>2019-01-02T15:32:06Z</time></trkpt><trkpt lat="38.320020" lon="-6.771581"><ele>478.125</ele><time>2019-01-02T15:32:12Z</time></trkpt><trkpt lat="38.320079" lon="-6.771461"><ele>478.708</ele><time>2019-01-02T15:32:23Z</time></trkpt><trkpt lat="38.320110" lon="-6.771341"><ele>478.810</ele><time>2019-01-02T15:32:33Z</time></trkpt><trkpt lat="38.320196" lon="-6.771194"><ele>478.448</ele><time>2019-01-02T15:32:47Z</time></trkpt><trkpt lat="38.320263" lon="-6.771035"><ele>478.275</ele><time>2019-01-02T15:33:02Z</time></trkpt><trkpt lat="38.320301" lon="-6.770958"><ele>477.932</ele><time>2019-01-02T15:33:09Z</time></trkpt><trkpt lat="38.320317" lon="-6.770857"><ele>477.276</ele><time>2019-01-02T15:33:17Z</time></trkpt><trkpt lat="38.320521" lon="-6.770365"><ele>472.979</ele><time>2019-01-02T15:34:01Z</time></trkpt><trkpt lat="38.320687" lon="-6.770040"><ele>471.397</ele><time>2019-01-02T15:34:31Z</time></trkpt><trkpt lat="38.320869" lon="-6.769686"><ele>470.335</ele><time>2019-01-02T15:35:04Z</time></trkpt><trkpt lat="38.321040" lon="-6.769387"><ele>470.182</ele><time>2019-01-02T15:35:33Z</time></trkpt><trkpt lat="38.321123" lon="-6.769255"><ele>470.443</ele><time>2019-01-02T15:35:47Z</time></trkpt><trkpt lat="38.321217" lon="-6.769019"><ele>470.717</ele><time>2019-01-02T15:36:07Z</time></trkpt><trkpt lat="38.321270" lon="-6.768846"><ele>471.208</ele><time>2019-01-02T15:36:22Z</time></trkpt><trkpt lat="38.321408" lon="-6.768638"><ele>472.141</ele><time>2019-01-02T15:36:43Z</time></trkpt><trkpt lat="38.321549" lon="-6.768424"><ele>471.269</ele><time>2019-01-02T15:37:05Z</time></trkpt><trkpt lat="38.321942" lon="-6.767762"><ele>470.796</ele><time>2019-01-02T15:38:10Z</time></trkpt><trkpt lat="38.322186" lon="-6.767446"><ele>470.283</ele><time>2019-01-02T15:38:45Z</time></trkpt><trkpt lat="38.322425" lon="-6.767183"><ele>470.297</ele><time>2019-01-02T15:39:17Z</time></trkpt><trkpt lat="38.322682" lon="-6.766928"><ele>470.550</ele><time>2019-01-02T15:39:49Z</time></trkpt><trkpt lat="38.322864" lon="-6.766713"><ele>470.968</ele><time>2019-01-02T15:40:14Z</time></trkpt><trkpt lat="38.323282" lon="-6.766241"><ele>471.796</ele><time>2019-01-02T15:41:10Z</time></trkpt><trkpt lat="38.323381" lon="-6.766099"><ele>471.868</ele><time>2019-01-02T15:41:25Z</time></trkpt><trkpt lat="38.323422" lon="-6.766022"><ele>472.042</ele><time>2019-01-02T15:41:32Z</time></trkpt><trkpt lat="38.323658" lon="-6.765667"><ele>474.326</ele><time>2019-01-02T15:42:09Z</time></trkpt><trkpt lat="38.323845" lon="-6.765509"><ele>475.408</ele><time>2019-01-02T15:42:31Z</time></trkpt><trkpt lat="38.323966" lon="-6.765351"><ele>477.179</ele><time>2019-01-02T15:42:49Z</time></trkpt><trkpt lat="38.324124" lon="-6.765166"><ele>479.647</ele><time>2019-01-02T15:43:10Z</time></trkpt><trkpt lat="38.324201" lon="-6.765091"><ele>480.324</ele><time>2019-01-02T15:43:20Z</time></trkpt><trkpt lat="38.324356" lon="-6.764981"><ele>481.651</ele><time>2019-01-02T15:43:38Z</time></trkpt><trkpt lat="38.324523" lon="-6.764882"><ele>483.375</ele><time>2019-01-02T15:43:56Z</time></trkpt><trkpt lat="38.324727" lon="-6.764762"><ele>483.918</ele><time>2019-01-02T15:44:18Z</time></trkpt><trkpt lat="38.324853" lon="-6.764660"><ele>484.536</ele><time>2019-01-02T15:44:33Z</time></trkpt><trkpt lat="38.324925" lon="-6.764568"><ele>484.864</ele><time>2019-01-02T15:44:44Z</time></trkpt><trkpt lat="38.325073" lon="-6.764432"><ele>484.765</ele><time>2019-01-02T15:45:02Z</time></trkpt><trkpt lat="38.325164" lon="-6.764314"><ele>485.568</ele><time>2019-01-02T15:45:15Z</time></trkpt><trkpt lat="38.325287" lon="-6.764094"><ele>486.014</ele><time>2019-01-02T15:45:36Z</time></trkpt><trkpt lat="38.325526" lon="-6.763683"><ele>486.208</ele><time>2019-01-02T15:46:16Z</time></trkpt><trkpt lat="38.325754" lon="-6.763286"><ele>486.369</ele><time>2019-01-02T15:46:55Z</time></trkpt><trkpt lat="38.325880" lon="-6.763031"><ele>486.647</ele><time>2019-01-02T15:47:19Z</time></trkpt><trkpt lat="38.326097" lon="-6.762704"><ele>487.284</ele><time>2019-01-02T15:47:52Z</time></trkpt><trkpt lat="38.326218" lon="-6.762503"><ele>487.941</ele><time>2019-01-02T15:48:12Z</time></trkpt><trkpt lat="38.326341" lon="-6.762287"><ele>488.125</ele><time>2019-01-02T15:48:33Z</time></trkpt><trkpt lat="38.326403" lon="-6.762207"><ele>488.528</ele><time>2019-01-02T15:48:42Z</time></trkpt><trkpt lat="38.326398" lon="-6.762083"><ele>489.366</ele><time>2019-01-02T15:48:52Z</time></trkpt><trkpt lat="38.326430" lon="-6.761920"><ele>490.394</ele><time>2019-01-02T15:49:05Z</time></trkpt><trkpt lat="38.326502" lon="-6.761834"><ele>490.566</ele><time>2019-01-02T15:49:15Z</time></trkpt></trkseg></trk></gpx>